Time;durP1;ratioP1;P1;durP2;ratioP2;P2;SDS_P1;SDS_P2;PMS_P1;PMS_P2;Temp;Humidity;BMP_temperature;BMP_pressure;BME280_temperature;BME280_humidity;BME280_pressure;Samples;Min_cycle;Max_cycle;Signal;HPM_P1;HPM_P2
2022/03/12 00:00:18;;;;;;;;;3.00;3.00;;;;;9.48;75.67;100563.38;5052117;28;45371;-81
2022/03/12 00:02:44;;;;;;;;;1.00;1.00;;;;;9.39;76.35;100558.03;5057193;28;45328;-81
2022/03/12 00:05:11;;;;;;;;;6.50;4.00;;;;;9.09;76.74;100519.22;5058195;28;45621;-80
2022/03/12 00:07:41;;;;;;;;;6.50;6.25;;;;;9.36;76.79;100565.91;5040108;28;45415;-80
2022/03/12 00:10:07;;;;;;;;;2.75;2.00;;;;;9.34;75.85;100578.16;5039991;28;45312;-80
2022/03/12 00:12:34;;;;;;;;;3.50;3.50;;;;;9.30;76.95;100577.22;5041611;28;45348;-80
2022/03/12 00:15:01;;;;;;;;;3.25;3.25;;;;;9.31;76.96;100591.28;5053300;28;45896;-81
2022/03/12 00:17:29;;;;;;;;;2.25;2.25;;;;;9.34;76.24;100597.44;5060316;28;45302;-80
2022/03/12 00:19:56;;;;;;;;;8.00;4.00;;;;;9.20;76.33;100570.13;5060901;28;45371;-81
2022/03/12 00:22:21;;;;;;;;;2.50;1.50;;;;;9.29;76.41;100582.47;5049233;28;45350;-80
2022/03/12 00:24:47;;;;;;;;;4.00;4.00;;;;;9.19;76.43;100584.13;5048858;28;45460;-80
2022/03/12 00:27:13;;;;;;;;;4.00;3.00;;;;;9.18;77.10;100589.38;5063696;28;45414;-80
2022/03/12 00:29:38;;;;;;;;;4.75;4.00;;;;;9.06;76.89;100570.00;5054673;28;45474;-80
2022/03/12 00:32:06;;;;;;;;;4.00;3.75;;;;;9.12;76.25;100592.84;5061071;28;45413;-79
2022/03/12 00:34:31;;;;;;;;;3.25;3.25;;;;;9.22;76.67;100599.06;5057770;28;45434;-80
2022/03/12 00:36:57;;;;;;;;;7.50;3.00;;;;;9.10;76.61;100573.53;5059703;28;45373;-80
2022/03/12 00:39:22;;;;;;;;;3.75;3.50;;;;;9.19;76.14;100581.50;5051487;28;45451;-80
2022/03/12 00:41:48;;;;;;;;;3.50;3.50;;;;;9.36;75.92;100594.81;5039955;28;45367;-80
2022/03/12 00:44:17;;;;;;;;;7.75;6.00;;;;;9.43;75.65;100592.28;5043158;28;45493;-80
2022/03/12 00:46:45;;;;;;;;;3.50;3.50;;;;;9.52;75.44;100614.28;5059989;28;45301;-80
2022/03/12 00:49:10;;;;;;;;;7.00;6.50;;;;;9.38;75.38;100577.31;5060745;28;45288;-80
2022/03/12 00:51:38;;;;;;;;;6.50;6.50;;;;;9.64;74.61;100614.38;5056866;28;45404;-80
2022/03/12 00:54:07;;;;;;;;;4.00;4.00;;;;;9.68;74.92;100621.44;5039332;28;45269;-79
2022/03/12 00:56:33;;;;;;;;;6.00;6.00;;;;;9.74;74.57;100631.13;5049057;28;45248;-80
2022/03/12 00:58:58;;;;;;;;;3.75;3.75;;;;;9.74;74.44;100637.25;5039184;28;45403;-80
2022/03/12 01:01:25;;;;;;;;;4.75;4.75;;;;;9.69;74.74;100620.56;5059405;28;45394;-79
2022/03/12 01:03:51;;;;;;;;;5.50;5.50;;;;;9.61;74.29;100612.59;5052486;28;46140;-80
2022/03/12 01:06:18;;;;;;;;;5.25;3.25;;;;;9.79;74.38;100653.09;5039430;28;45237;-79
2022/03/12 01:08:44;;;;;;;;;4.25;3.00;;;;;9.62;74.50;100617.00;5039496;28;45470;-80
2022/03/12 01:11:11;;;;;;;;;5.00;5.00;;;;;9.82;74.26;100655.75;5039580;28;45600;-80
2022/03/12 01:13:37;;;;;;;;;7.00;6.75;;;;;9.55;74.05;100617.81;5039115;28;45492;-80
2022/03/12 01:16:03;;;;;;;;;8.00;4.50;;;;;9.76;74.43;100647.78;5059083;28;45344;-80
2022/03/12 01:18:29;;;;;;;;;3.00;3.00;;;;;9.69;74.03;100642.50;5059409;28;45393;-80
2022/03/12 01:21:05;;;;;;;;;4.00;4.00;;;;;9.81;74.54;100654.00;5057786;28;45391;-78
2022/03/12 01:23:31;;;;;;;;;5.50;3.50;;;;;9.58;74.24;100641.50;5039033;28;46423;-80
2022/03/12 01:25:57;;;;;;;;;1.25;0.00;;;;;9.69;74.85;100663.53;5052112;28;45358;-81
2022/03/12 01:28:22;;;;;;;;;3.50;3.50;;;;;9.64;73.99;100657.34;5059169;28;45246;-80
2022/03/12 01:30:48;;;;;;;;;3.25;3.25;;;;;9.51;74.29;100637.06;5054286;28;45584;-79
2022/03/12 01:33:13;;;;;;;;;4.00;4.00;;;;;9.69;74.41;100675.81;5058983;28;46456;-80
2022/03/12 01:35:39;;;;;;;;;6.00;6.00;;;;;9.68;74.54;100664.41;5056396;28;45478;-80
2022/03/12 01:38:06;;;;;;;;;5.00;5.00;;;;;9.61;75.05;100657.31;5039485;28;45268;-80
2022/03/12 01:40:32;;;;;;;;;4.00;3.25;;;;;9.54;74.88;100665.13;5039419;28;45347;-79
2022/03/12 01:42:58;;;;;;;;;3.00;3.00;;;;;9.48;74.72;100654.53;5038677;28;45978;-80
2022/03/12 01:45:29;;;;;;;;;7.75;6.25;;;;;9.32;75.11;100636.00;5049328;28;45522;-79
2022/03/12 01:47:57;;;;;;;;;4.75;4.75;;;;;9.32;75.33;100646.50;5058938;28;45366;-80
2022/03/12 01:50:28;;;;;;;;;4.50;4.50;;;;;9.24;75.55;100640.28;5059045;28;45419;-80
2022/03/12 01:52:58;;;;;;;;;3.00;3.00;;;;;9.22;75.73;100649.91;5018359;28;46969;-80
2022/03/12 01:55:30;;;;;;;;;6.25;5.00;;;;;9.18;76.30;100645.44;5056607;28;45263;-80
2022/03/12 01:57:57;;;;;;;;;3.50;3.00;;;;;9.13;76.62;100652.41;5058484;28;45299;-80
2022/03/12 02:00:24;;;;;;;;;3.75;2.75;;;;;9.19;76.39;100672.59;5051140;28;45454;-80
2022/03/12 02:02:54;;;;;;;;;6.50;5.00;;;;;9.18;76.73;100670.84;5038581;28;46414;-80
2022/03/12 02:05:23;;;;;;;;;8.00;4.00;;;;;9.24;76.21;100676.19;5038526;28;45422;-79
2022/03/12 02:07:48;;;;;;;;;7.25;6.50;;;;;9.14;75.43;100657.69;5038116;28;45285;-79
2022/03/12 02:10:18;;;;;;;;;8.00;6.25;;;;;9.34;75.28;100680.69;5038588;28;45177;-78
2022/03/12 02:12:43;;;;;;;;;4.00;4.00;;;;;9.30;75.95;100671.88;5060356;28;46197;-80
2022/03/12 02:15:09;;;;;;;;;6.50;6.00;;;;;9.17;75.49;100653.31;5053849;28;45375;-80
2022/03/12 02:17:38;;;;;;;;;7.25;3.50;;;;;9.36;75.02;100692.09;5039572;28;45295;-80
2022/03/12 02:20:05;;;;;;;;;4.50;2.75;;;;;9.22;75.44;100676.19;5038873;28;45329;-80
2022/03/12 02:22:30;;;;;;;;;5.50;5.50;;;;;9.27;75.29;100689.34;5042581;28;45332;-80
2022/03/12 02:24:56;;;;;;;;;9.50;6.25;;;;;9.14;75.65;100686.59;5038777;28;45348;-80
2022/03/12 02:27:25;;;;;;;;;3.00;3.00;;;;;9.13;75.77;100692.72;5039255;28;45193;-80
2022/03/12 02:29:54;;;;;;;;;6.50;3.25;;;;;9.05;76.28;100686.47;5039007;28;45244;-80
2022/03/12 02:32:20;;;;;;;;;7.75;7.00;;;;;8.93;75.73;100672.28;5030794;28;45467;-79
2022/03/12 02:34:47;;;;;;;;;4.00;4.00;;;;;8.83;76.78;100658.16;5038749;28;45237;-80
2022/03/12 02:37:32;;;;;;;;;6.50;6.50;;;;;8.89;76.45;100689.75;5038732;28;45186;-79
2022/03/12 02:40:09;;;;;;;;;4.50;4.50;;;;;8.87;76.41;100690.59;5038073;28;45516;-80
2022/03/12 02:42:38;;;;;;;;;3.00;3.00;;;;;8.85;77.06;100695.84;5053186;28;45541;-78
2022/03/12 02:45:08;;;;;;;;;6.25;4.50;;;;;8.82;76.96;100680.03;5038372;28;45601;-78
2022/03/12 02:47:36;;;;;;;;;6.75;6.00;;;;;8.75;77.22;100670.31;5052915;28;45453;-78
2022/03/12 02:50:07;;;;;;;;;7.75;5.00;;;;;8.83;76.82;100687.03;5037642;28;45481;-79
2022/03/12 02:52:40;;;;;;;;;5.75;5.75;;;;;8.85;77.14;100685.34;5038294;28;46294;-80
2022/03/12 02:55:06;;;;;;;;;3.00;3.00;;;;;8.60;76.44;100642.09;5038410;28;45306;-79
2022/03/12 02:57:31;;;;;;;;;3.50;3.50;;;;;8.84;77.11;100687.09;5041400;28;45400;-79
2022/03/12 03:00:04;;;;;;;;;4.00;4.00;;;;;8.71;77.21;100671.13;5058461;28;45356;-80
2022/03/12 03:02:39;;;;;;;;;7.00;7.00;;;;;8.84;77.15;100687.09;5053351;28;45438;-80
2022/03/12 03:08:02;;;;;;;;;4.00;4.00;;;;;8.83;76.66;100689.66;5042381;28;45315;-80
2022/03/12 03:10:31;;;;;;;;;4.00;4.00;;;;;8.82;77.02;100693.16;5057982;28;45458;-80
2022/03/12 03:12:58;;;;;;;;;3.50;3.50;;;;;8.82;76.89;100695.78;5057575;28;45347;-80
2022/03/12 03:15:25;;;;;;;;;7.00;4.00;;;;;8.80;76.99;100698.41;5055877;28;45252;-80
2022/03/12 03:17:51;;;;;;;;;1.25;1.25;;;;;8.83;76.98;100703.69;5053055;28;45369;-80
2022/03/12 03:20:16;;;;;;;;;5.50;5.25;;;;;8.82;77.24;100703.66;5056790;28;45196;-79
2022/03/12 03:22:41;;;;;;;;;7.25;6.75;;;;;8.72;77.06;100681.63;5037081;28;45472;-80
2022/03/12 03:25:07;;;;;;;;;6.00;5.00;;;;;8.78;77.10;100712.38;5037905;28;45407;-80
2022/03/12 03:27:32;;;;;;;;;7.00;3.25;;;;;8.80;76.62;100711.53;5049117;28;45479;-80
2022/03/12 03:29:58;;;;;;;;;4.00;4.00;;;;;8.66;77.04;100686.81;5057599;28;45351;-80
2022/03/12 03:32:23;;;;;;;;;5.50;4.50;;;;;8.74;77.23;100702.66;5051117;28;45790;-80
2022/03/12 03:34:49;;;;;;;;;4.00;4.00;;;;;8.59;77.01;100679.72;5055710;28;45413;-79
2022/03/12 03:37:15;;;;;;;;;4.50;4.50;;;;;8.70;77.54;100703.50;5037728;28;45351;-79
2022/03/12 03:39:40;;;;;;;;;5.50;4.00;;;;;8.56;77.38;100687.53;5037237;28;45355;-80
2022/03/12 03:42:06;;;;;;;;;6.50;6.25;;;;;8.65;77.00;100700.78;5037169;28;45407;-79
2022/03/12 03:44:31;;;;;;;;;5.00;5.00;;;;;8.65;77.07;100699.91;5052142;28;45588;-80
2022/03/12 03:46:57;;;;;;;;;3.25;3.25;;;;;8.63;77.31;100704.25;5055603;28;45588;-80
2022/03/12 03:49:24;;;;;;;;;3.75;3.75;;;;;8.64;77.40;100713.91;5061156;28;45352;-80
2022/03/12 03:51:50;;;;;;;;;3.75;3.75;;;;;8.64;77.34;100721.78;5058059;28;45445;-79
2022/03/12 03:54:15;;;;;;;;;4.00;4.00;;;;;8.62;77.58;100724.38;5047986;28;45249;-79
2022/03/12 03:56:41;;;;;;;;;7.00;7.00;;;;;8.63;77.38;100722.66;5060832;28;45417;-80
2022/03/12 03:59:07;;;;;;;;;4.50;4.50;;;;;8.61;76.89;100716.50;5061600;28;45326;-80
2022/03/12 04:01:39;;;;;;;;;4.50;4.50;;;;;8.33;76.97;100678.41;5057170;28;45415;-79
2022/03/12 04:04:05;;;;;;;;;6.25;6.25;;;;;8.55;77.41;100722.53;5059105;28;45228;-80
2022/03/12 04:06:30;;;;;;;;;6.25;6.25;;;;;8.53;77.36;100721.63;5043217;28;45450;-78
2022/03/12 04:08:55;;;;;;;;;6.75;6.75;;;;;8.41;77.68;100717.06;5039806;28;45241;-80
2022/03/12 04:11:23;;;;;;;;;4.50;4.50;;;;;8.28;77.49;100692.34;5040348;28;46097;-79
2022/03/12 04:13:51;;;;;;;;;6.00;6.00;;;;;8.26;77.43;100696.66;5059213;28;45775;-79
2022/03/12 04:16:18;;;;;;;;;6.25;4.50;;;;;8.33;77.63;100707.28;5059747;28;45513;-79
2022/03/12 04:18:46;;;;;;;;;6.50;3.00;;;;;8.39;77.82;100718.81;5056791;28;45529;-80
2022/03/12 04:21:13;;;;;;;;;7.75;3.50;;;;;8.40;77.95;100727.56;5043180;28;46129;-80
2022/03/12 04:23:40;;;;;;;;;5.50;3.75;;;;;8.37;78.04;100732.72;5040592;28;45339;-80
2022/03/12 04:26:05;;;;;;;;;4.00;4.00;;;;;8.25;77.90;100708.03;5040259;28;45363;-80
2022/03/12 04:28:32;;;;;;;;;2.75;2.00;;;;;8.37;77.82;100724.84;5040517;28;45319;-79
2022/03/12 04:30:59;;;;;;;;;7.00;4.00;;;;;8.25;77.41;100705.41;5038640;28;47689;-80
2022/03/12 04:33:25;;;;;;;;;7.75;6.00;;;;;8.35;77.78;100724.84;5057944;28;45439;-80
2022/03/12 04:35:51;;;;;;;;;8.00;6.00;;;;;8.31;77.42;100733.50;5047699;28;45466;-79
2022/03/12 04:38:16;;;;;;;;;5.00;5.00;;;;;8.29;77.40;100728.22;5049000;28;45546;-81
2022/03/12 04:40:44;;;;;;;;;7.50;5.50;;;;;8.27;77.64;100737.78;5057622;28;46051;-81
2022/03/12 04:43:14;;;;;;;;;3.25;3.25;;;;;8.09;77.99;100708.63;5058089;28;45434;-78
2022/03/12 04:45:42;;;;;;;;;2.00;2.00;;;;;8.19;77.83;100726.31;5060522;28;45295;-79
2022/03/12 04:48:10;;;;;;;;;2.00;2.00;;;;;8.14;77.43;100725.34;5053489;28;45475;-80
2022/03/12 04:50:35;;;;;;;;;3.00;3.00;;;;;7.97;78.32;100697.94;5042870;28;45379;-79
2022/03/12 04:53:01;;;;;;;;;2.50;2.50;;;;;8.16;77.48;100715.75;5039799;28;45299;-79
2022/03/12 04:55:29;;;;;;;;;4.00;4.00;;;;;8.33;77.74;100741.41;5039342;28;45416;-80
2022/03/12 04:57:55;;;;;;;;;2.00;0.00;;;;;8.36;77.08;100737.09;5039700;28;45296;-79
2022/03/12 05:00:29;;;;;;;;;6.25;4.50;;;;;8.40;76.79;100740.69;5039046;28;45368;-79
2022/03/12 05:03:03;;;;;;;;;3.75;3.00;;;;;8.45;77.30;100746.88;5039524;28;45276;-79
2022/03/12 05:05:29;;;;;;;;;5.75;5.75;;;;;8.51;77.53;100754.84;5036749;28;45263;-78
2022/03/12 05:07:59;;;;;;;;;5.50;4.00;;;;;8.56;76.75;100758.41;5039719;28;45237;-79
2022/03/12 05:10:26;;;;;;;;;6.00;6.00;;;;;8.50;76.23;100738.22;5040959;28;45913;-79
2022/03/12 05:12:54;;;;;;;;;2.00;2.00;;;;;8.54;76.12;100739.13;5055472;28;45422;-79
2022/03/12 05:15:20;;;;;;;;;3.00;3.00;;;;;8.67;76.51;100771.75;5059721;28;45283;-79
2022/03/12 05:17:48;;;;;;;;;3.25;3.00;;;;;8.57;75.52;100745.34;5055942;28;45421;-79
2022/03/12 05:20:20;;;;;;;;;3.25;3.00;;;;;8.72;75.54;100764.81;5051597;28;46148;-78
2022/03/12 05:22:46;;;;;;;;;3.50;2.50;;;;;8.73;75.46;100769.19;5059334;28;45355;-78
2022/03/12 05:25:11;;;;;;;;;6.50;6.00;;;;;8.71;75.68;100763.03;5041469;28;45401;-77
2022/03/12 05:27:37;;;;;;;;;6.75;6.00;;;;;8.74;75.72;100763.06;5039018;28;45361;-79
2022/03/12 05:30:06;;;;;;;;;4.00;2.00;;;;;8.79;75.70;100770.19;5039081;28;45647;-79
2022/03/12 05:32:31;;;;;;;;;4.00;4.00;;;;;8.68;75.12;100744.63;5039173;28;45319;-79
2022/03/12 05:34:57;;;;;;;;;2.75;2.00;;;;;8.79;75.28;100764.94;5038454;28;45331;-79
2022/03/12 05:37:22;;;;;;;;;3.25;3.25;;;;;8.80;74.67;100773.69;5039142;28;45410;-79
2022/03/12 05:39:51;;;;;;;;;4.00;3.00;;;;;8.85;74.80;100778.16;5054130;28;46334;-79
2022/03/12 05:42:22;;;;;;;;;4.25;3.75;;;;;8.80;74.64;100774.56;5037908;28;45236;-79
2022/03/12 05:44:50;;;;;;;;;4.00;4.00;;;;;8.73;74.63;100759.56;5038800;28;45322;-79
2022/03/12 05:47:17;;;;;;;;;4.25;4.25;;;;;8.84;74.85;100779.03;5039081;28;45426;-79
2022/03/12 05:49:42;;;;;;;;;3.00;2.25;;;;;8.73;75.10;100759.56;5037731;28;46382;-79
2022/03/12 05:52:09;;;;;;;;;6.00;2.75;;;;;8.70;74.80;100764.78;5038375;28;45320;-80
2022/03/12 05:54:35;;;;;;;;;3.25;3.25;;;;;8.73;75.05;100762.19;5038631;28;45356;-79
2022/03/12 05:57:00;;;;;;;;;4.25;3.00;;;;;8.75;74.43;100785.88;5038099;28;45353;-79
2022/03/12 05:59:26;;;;;;;;;5.50;3.25;;;;;8.73;74.88;100784.94;5038478;28;46889;-78
2022/03/12 06:01:51;;;;;;;;;6.00;3.00;;;;;8.73;74.86;100793.72;5038743;28;45448;-75
2022/03/12 06:04:25;;;;;;;;;2.50;2.50;;;;;8.75;75.36;100794.66;5038783;28;45463;-79
2022/03/12 06:06:51;;;;;;;;;6.75;4.50;;;;;8.70;75.18;100788.41;5038315;28;45392;-78
2022/03/12 06:09:17;;;;;;;;;8.00;6.75;;;;;8.65;74.84;100791.81;5038714;28;45613;-79
2022/03/12 06:11:42;;;;;;;;;6.00;6.00;;;;;8.60;75.03;100801.38;5037719;28;45662;-79
2022/03/12 06:14:15;;;;;;;;;12.25;7.00;;;;;8.39;75.23;100781.78;5038406;28;45320;-79
2022/03/12 06:16:41;;;;;;;;;8.50;8.50;;;;;8.43;75.75;100806.34;5038339;28;45308;-79
2022/03/12 06:19:08;;;;;;;;;13.25;8.50;;;;;8.37;76.40;100804.47;5037445;28;45513;-79
2022/03/12 06:21:33;;;;;;;;;8.00;8.00;;;;;8.19;75.83;100783.13;5041873;28;46969;-79
2022/03/12 06:24:00;;;;;;;;;6.25;6.00;;;;;8.39;76.28;100815.91;5048417;28;46339;-79
2022/03/12 06:26:27;;;;;;;;;3.25;3.25;;;;;8.33;75.52;100800.03;5051470;28;45246;-79
2022/03/12 06:28:53;;;;;;;;;4.00;4.00;;;;;8.35;75.96;100806.22;5049700;28;45896;-79
2022/03/12 06:31:19;;;;;;;;;6.75;5.00;;;;;8.50;75.42;100830.09;5043307;28;45434;-79
2022/03/12 06:33:45;;;;;;;;;3.25;3.25;;;;;8.51;75.04;100833.63;5058667;28;45344;-79
2022/03/12 06:36:12;;;;;;;;;7.75;6.00;;;;;8.52;75.57;100827.50;5050807;28;45366;-78
2022/03/12 06:38:38;;;;;;;;;3.50;3.50;;;;;8.31;75.44;100803.47;5051154;28;46123;-79
2022/03/12 06:41:04;;;;;;;;;7.00;5.75;;;;;8.25;74.92;100792.00;5053298;28;45532;-79
2022/03/12 06:43:31;;;;;;;;;6.00;6.00;;;;;8.29;74.44;100819.22;5048674;28;45458;-79
2022/03/12 06:45:58;;;;;;;;;5.75;5.50;;;;;8.27;75.68;100841.91;5058249;28;45247;-79
2022/03/12 06:48:24;;;;;;;;;6.00;3.50;;;;;8.21;75.71;100840.06;5057768;28;45536;-80
2022/03/12 06:50:50;;;;;;;;;6.00;3.50;;;;;8.27;76.18;100847.16;5057892;28;45406;-79
2022/03/12 06:53:15;;;;;;;;;6.25;4.25;;;;;8.23;76.42;100851.47;5058014;28;45465;-79
2022/03/12 06:55:41;;;;;;;;;4.00;4.00;;;;;8.09;75.83;100828.44;5047531;28;45339;-80
2022/03/12 06:58:07;;;;;;;;;4.00;4.00;;;;;8.25;76.15;100847.13;5037462;28;46128;-79
2022/03/12 07:00:33;;;;;;;;;5.00;5.00;;;;;8.06;75.91;100817.88;5037800;28;45421;-79
2022/03/12 07:02:59;;;;;;;;;2.75;2.75;;;;;8.40;76.14;100871.94;5037679;28;45367;-80
2022/03/12 07:05:25;;;;;;;;;3.75;2.75;;;;;8.31;75.94;100877.84;5036385;28;45876;-79
2022/03/12 07:07:52;;;;;;;;;4.50;4.00;;;;;8.35;75.60;100887.56;5037429;28;46093;-79
2022/03/12 07:10:18;;;;;;;;;7.25;4.25;;;;;8.35;75.94;100887.56;5036991;28;45349;-80
2022/03/12 07:12:45;;;;;;;;;3.75;3.75;;;;;8.44;75.36;100886.88;5037196;28;45909;-79
2022/03/12 07:15:11;;;;;;;;;6.25;3.50;;;;;8.50;75.36;100887.88;5037556;28;45374;-80
2022/03/12 07:17:37;;;;;;;;;4.00;2.75;;;;;8.59;74.95;100897.66;5036877;28;46179;-80
2022/03/12 07:20:05;;;;;;;;;5.50;4.25;;;;;8.56;75.05;100881.81;5037347;28;45244;-79
2022/03/12 07:22:32;;;;;;;;;3.75;3.75;;;;;8.36;74.80;100857.84;5037364;28;45355;-79
2022/03/12 07:24:57;;;;;;;;;4.50;4.50;;;;;8.54;75.04;100878.28;5047234;28;45403;-80
2022/03/12 07:27:24;;;;;;;;;8.00;4.00;;;;;8.48;75.08;100858.09;5057116;28;47319;-80
2022/03/12 07:29:54;;;;;;;;;8.00;5.50;;;;;8.70;74.44;100892.59;5045817;28;45425;-79
2022/03/12 07:32:23;;;;;;;;;6.25;6.25;;;;;8.51;73.83;100858.13;5032380;28;45395;-78
2022/03/12 07:34:48;;;;;;;;;4.00;3.75;;;;;8.43;74.41;100862.34;5036106;28;45805;-79
2022/03/12 07:37:16;;;;;;;;;3.00;3.00;;;;;8.67;74.18;100879.41;5034324;28;46076;-79
2022/03/12 07:39:42;;;;;;;;;3.00;3.00;;;;;8.78;73.92;100889.25;5038756;28;45574;-79
2022/03/12 07:42:07;;;;;;;;;3.50;3.50;;;;;9.00;73.49;100903.59;5047519;28;45555;-79
2022/03/12 07:44:33;;;;;;;;;4.50;4.00;;;;;8.99;73.38;100911.47;5019029;28;45442;-79
2022/03/12 07:46:59;;;;;;;;;4.50;4.50;;;;;9.03;73.62;100908.06;5054868;28;45906;-80
2022/03/12 07:49:26;;;;;;;;;7.75;5.75;;;;;9.04;72.83;100910.69;5039931;28;45542;-81
2022/03/12 07:51:52;;;;;;;;;8.75;4.00;;;;;8.84;72.53;100862.16;5038633;28;46011;-79
2022/03/12 07:54:18;;;;;;;;;7.50;4.50;;;;;9.18;72.94;100904.75;5036251;28;45249;-82
2022/03/12 07:56:44;;;;;;;;;6.00;6.00;;;;;9.06;72.28;100884.44;5039380;28;47420;-81
2022/03/12 07:59:10;;;;;;;;;6.75;6.75;;;;;9.24;72.42;100899.63;5045041;28;45420;-79
2022/03/12 08:01:37;;;;;;;;;7.75;7.25;;;;;9.21;72.46;100913.56;5036083;28;45414;-80
2022/03/12 08:04:04;;;;;;;;;6.25;6.00;;;;;9.22;72.27;100910.09;5040464;28;45419;-79
2022/03/12 08:06:30;;;;;;;;;7.50;6.00;;;;;9.24;72.49;100926.78;5038414;28;46462;-78
2022/03/12 08:08:57;;;;;;;;;6.00;6.00;;;;;9.18;72.55;100929.31;5034790;28;45483;-78
2022/03/12 08:11:29;;;;;;;;;8.00;8.00;;;;;9.23;72.31;100937.28;5036544;28;45381;-79
2022/03/12 08:14:02;;;;;;;;;7.00;7.00;;;;;9.28;72.40;100948.72;5035738;28;45777;-78
2022/03/12 08:16:35;;;;;;;;;9.25;6.75;;;;;9.23;72.78;100951.31;5036761;28;46022;-79
2022/03/12 08:19:03;;;;;;;;;9.00;9.00;;;;;9.28;71.97;100954.00;5035341;28;45387;-77
2022/03/12 08:21:28;;;;;;;;;9.00;9.00;;;;;9.18;72.63;100942.44;5036250;28;45316;-76
2022/03/12 08:23:54;;;;;;;;;8.00;8.00;;;;;9.22;72.94;100951.28;5039705;28;45461;-78
2022/03/12 08:26:20;;;;;;;;;7.00;7.00;;;;;9.27;72.55;100953.09;5036498;28;45244;-78
2022/03/12 08:28:49;;;;;;;;;6.75;6.75;;;;;9.30;72.32;100965.41;5046013;28;45430;-79
2022/03/12 08:31:15;;;;;;;;;8.25;5.50;;;;;9.28;72.65;100961.88;5060224;28;45435;-78
2022/03/12 08:33:40;;;;;;;;;7.00;7.00;;;;;9.23;72.56;100961.81;5047829;28;45532;-77
2022/03/12 08:36:06;;;;;;;;;4.00;3.50;;;;;9.35;72.00;100982.16;5038534;28;45518;-76
2022/03/12 08:38:35;;;;;;;;;7.25;7.25;;;;;9.29;72.29;100968.91;5034647;28;46667;-74
2022/03/12 08:41:02;;;;;;;;;7.50;7.50;;;;;9.37;72.21;100983.06;5038420;28;45403;-77
2022/03/12 08:43:28;;;;;;;;;8.00;8.00;;;;;9.33;72.18;100957.59;5038854;28;45419;-79
2022/03/12 08:45:53;;;;;;;;;5.25;5.25;;;;;9.53;71.99;100987.72;5055883;28;46757;-79
2022/03/12 08:48:19;;;;;;;;;8.75;5.50;;;;;9.54;71.66;100980.69;5046874;28;45430;-78
2022/03/12 08:50:45;;;;;;;;;4.50;4.00;;;;;9.34;71.54;100946.22;5053100;28;45565;-78
2022/03/12 08:53:11;;;;;;;;;7.25;6.50;;;;;9.59;71.58;100971.16;5038206;28;46034;-79
2022/03/12 08:55:38;;;;;;;;;5.50;5.50;;;;;9.43;71.47;100928.81;5047317;28;45554;-77
2022/03/12 08:58:04;;;;;;;;;9.25;8.25;;;;;9.63;71.55;100963.31;5036042;28;45517;-79
2022/03/12 09:00:29;;;;;;;;;6.00;6.00;;;;;9.71;71.67;100959.06;5034115;28;45930;-77
2022/03/12 09:02:55;;;;;;;;;7.50;7.50;;;;;9.80;71.08;100960.94;5034290;28;45202;-77
2022/03/12 09:05:21;;;;;;;;;9.00;9.00;;;;;9.92;71.20;100970.72;5039201;28;46099;-78
2022/03/12 09:07:48;;;;;;;;;7.75;6.75;;;;;9.86;70.77;100945.22;5039416;28;46445;-74
2022/03/12 09:10:14;;;;;;;;;7.25;7.25;;;;;9.77;70.56;100912.63;5046734;28;45342;-73
2022/03/12 09:12:41;;;;;;;;;6.25;6.25;;;;;10.17;69.98;100959.66;5059931;28;45469;-74
2022/03/12 09:15:09;;;;;;;;;10.75;6.50;;;;;10.15;70.53;100963.16;5054013;28;45393;-77
2022/03/12 09:17:35;;;;;;;;;9.00;6.75;;;;;9.82;70.50;100897.81;5038449;28;46287;-78
2022/03/12 09:20:02;;;;;;;;;6.00;3.00;;;;;10.02;70.42;100903.31;5039233;28;45309;-78
2022/03/12 09:22:27;;;;;;;;;6.00;6.00;;;;;10.36;69.93;100955.53;5039563;28;45181;-78
2022/03/12 09:24:52;;;;;;;;;8.00;7.00;;;;;10.13;70.07;100906.94;5039035;28;45390;-79
2022/03/12 09:27:18;;;;;;;;;6.50;6.50;;;;;10.20;69.72;100924.59;5039670;28;45249;-76
2022/03/12 09:29:43;;;;;;;;;4.00;2.00;;;;;10.42;70.17;100944.19;5045639;28;45474;-77
2022/03/12 09:32:09;;;;;;;;;8.50;7.25;;;;;10.09;69.72;100886.72;5042106;28;45443;-77
2022/03/12 09:34:35;;;;;;;;;6.50;6.25;;;;;10.09;69.72;100869.19;5058258;28;46084;-77
2022/03/12 09:37:05;;;;;;;;;8.00;6.50;;;;;10.65;69.77;100934.78;5040336;28;45454;-79
2022/03/12 09:39:30;;;;;;;;;5.75;3.75;;;;;10.82;69.28;100964.84;5038253;28;45452;-78
2022/03/12 09:41:56;;;;;;;;;8.50;8.50;;;;;10.85;69.32;100964.84;5037336;28;45855;-76
2022/03/12 09:44:22;;;;;;;;;3.50;3.50;;;;;10.54;69.22;100900.44;5041347;28;45480;-77
2022/03/12 09:46:48;;;;;;;;;9.25;7.25;;;;;10.92;69.34;100957.91;5039401;28;45327;-78
2022/03/12 09:49:14;;;;;;;;;8.00;8.00;;;;;10.99;69.10;100954.44;5045706;28;45328;-79
2022/03/12 09:51:42;;;;;;;;;10.00;8.00;;;;;11.05;68.88;100957.13;5039594;28;45418;-78
2022/03/12 09:54:07;;;;;;;;;9.25;9.25;;;;;11.08;68.99;100946.63;5037791;28;46249;-82
2022/03/12 09:56:33;;;;;;;;;9.50;9.25;;;;;11.18;68.53;100934.41;5038760;28;45757;-79
2022/03/12 09:58:58;;;;;;;;;6.25;6.25;;;;;11.37;68.30;100936.31;5046606;28;45839;-77
2022/03/12 10:01:24;;;;;;;;;9.00;7.75;;;;;11.64;67.39;100945.28;5040748;28;45527;-78
2022/03/12 10:03:49;;;;;;;;;9.25;7.50;;;;;11.49;66.21;100893.28;5031860;28;46087;-81
2022/03/12 10:06:17;;;;;;;;;10.50;9.25;;;;;11.84;65.66;100926.97;5038040;28;45211;-80
2022/03/12 10:08:43;;;;;;;;;11.25;10.25;;;;;11.96;65.77;100901.50;5036590;28;45450;-80
2022/03/12 10:11:09;;;;;;;;;14.00;9.00;;;;;12.56;64.88;100946.59;5039045;28;45499;-78
2022/03/12 10:13:35;;;;;;;;;10.00;10.00;;;;;12.78;62.97;100952.81;5042183;28;45251;-79
2022/03/12 10:16:01;;;;;;;;;9.00;9.00;;;;;12.89;63.25;100960.75;5041054;28;45509;-79
2022/03/12 10:18:27;;;;;;;;;10.75;9.50;;;;;12.84;63.49;100960.75;5034317;28;45406;-79
2022/03/12 10:20:53;;;;;;;;;12.25;10.00;;;;;12.73;62.74;100951.91;5058217;28;45344;-80
2022/03/12 10:23:18;;;;;;;;;14.50;10.25;;;;;12.65;63.59;100951.00;5058293;28;45505;-79
2022/03/12 10:25:45;;;;;;;;;12.25;10.00;;;;;12.64;62.97;100936.03;5057998;28;45426;-79
2022/03/12 10:28:12;;;;;;;;;10.25;9.25;;;;;12.70;63.13;100944.00;5057851;28;45520;-79
2022/03/12 10:30:37;;;;;;;;;13.00;13.00;;;;;12.53;63.01;100949.22;5058166;28;45215;-79
2022/03/12 10:33:03;;;;;;;;;9.25;9.25;;;;;12.58;63.98;100943.97;5040257;28;46265;-78
2022/03/12 10:35:37;;;;;;;;;4.25;4.25;;;;;12.50;63.17;100933.38;5057833;28;45403;-78
2022/03/12 10:38:10;;;;;;;;;10.50;9.25;;;;;12.22;64.86;100940.34;5057707;28;45183;-79
2022/03/12 10:40:35;;;;;;;;;14.50;12.00;;;;;12.22;64.49;100921.84;5056298;28;45209;-79
2022/03/12 10:43:05;;;;;;;;;10.00;10.00;;;;;12.44;64.91;100950.09;5048622;28;45766;-80
2022/03/12 10:45:38;;;;;;;;;12.75;12.75;;;;;12.37;64.34;100919.22;5057584;28;45418;-79
2022/03/12 10:48:05;;;;;;;;;10.00;9.50;;;;;12.59;63.46;100921.94;5055024;28;45435;-80
2022/03/12 10:50:35;;;;;;;;;10.50;10.00;;;;;12.72;64.24;100944.88;5057710;28;45437;-80
2022/03/12 10:53:05;;;;;;;;;11.00;11.00;;;;;12.57;64.15;100940.44;5055726;28;47198;-79
2022/03/12 10:55:36;;;;;;;;;13.25;11.00;;;;;12.44;65.06;100939.50;5057269;28;45405;-80
2022/03/12 10:58:12;;;;;;;;;11.00;11.00;;;;;12.29;64.30;100935.97;5057174;28;45377;-79
2022/03/12 11:00:40;;;;;;;;;13.75;12.75;;;;;12.22;64.75;100938.56;5055855;28;45422;-80
2022/03/12 11:03:11;;;;;;;;;11.00;10.00;;;;;12.12;66.10;100920.94;5056876;28;46649;-79
2022/03/12 11:05:37;;;;;;;;;9.00;9.00;;;;;12.20;65.37;100932.41;5057097;28;45278;-78
2022/03/12 11:08:29;;;;;;;;;14.50;10.00;;;;;11.95;64.89;100889.16;5057780;28;45238;-81
2022/03/12 11:11:12;;;;;;;;;9.25;7.25;;;;;12.34;64.61;100915.72;4975539;28;45379;-81
2022/03/12 11:13:44;;;;;;;;;10.00;10.00;;;;;12.35;64.69;100931.56;4975870;28;45463;-79
2022/03/12 11:16:27;;;;;;;;;6.75;6.75;;;;;12.02;65.77;100921.75;4975544;28;45353;-81
2022/03/12 11:18:52;;;;;;;;;8.50;8.50;;;;;11.99;65.62;100912.06;4975620;28;45430;-79
2022/03/12 11:21:42;;;;;;;;;7.75;7.75;;;;;11.94;65.55;100899.72;4975969;28;45411;-80
2022/03/12 11:24:15;;;;;;;;;8.50;8.50;;;;;11.99;66.35;100912.06;4975648;28;45412;-81
2022/03/12 11:26:49;;;;;;;;;9.25;6.00;;;;;11.87;65.73;100887.38;4975268;28;45525;-81
2022/03/12 11:29:20;;;;;;;;;3.50;2.75;;;;;12.10;66.66;100909.47;4975579;28;45504;-80
2022/03/12 11:31:53;;;;;;;;;12.75;10.25;;;;;11.77;66.28;100894.31;4975588;28;45332;-81